Terminal Aerodrome Forecast
Issued by NWS Melbourne, FL

Home | Current Version | Previous Version | Text Only | Print | Product List | Glossary On
Versions: 1 2 3 4 5 6 7 8 9 10 11 12 13 14 15 16 17 18 19 20 21 22 23
000
FTUS42 KMLB 242300
TAFMCO
TAF
KMCO 242320Z 2500/2524 12011KT P6SM VCSH SCT050 BKN080 BKN100
     FM250200 VRB03KT P6SM FEW030 SCT080
      TEMPO 2510/2513 5SM BR SCT005
     FM251400 24007KT P6SM SKC=

USA.gov is the U.S. government's official web portal to all federal, state and local government web resources and services.